createdAt,value
2017-09-08T02:42:05.618Z,94883.22
2017-09-08T03:54:55.745Z,94897.17
2017-09-08T04:14:20.119Z,94923.73
2017-09-08T04:31:41.277Z,94938.58
2017-09-08T04:34:09.891Z,94940.19
2017-09-08T04:40:27.120Z,94932.53
2017-09-08T04:42:56.087Z,94924.53
2017-09-08T04:53:13.246Z,94930.95
2017-09-08T04:56:04.947Z,94926.15
2017-09-08T05:40:42.310Z,94949.95
2017-09-08T05:43:36.912Z,94948.45
2017-09-08T05:59:09.646Z,94948.48
2017-09-08T09:09:22.734Z,94904.03
2017-09-08T12:33:59.302Z,94725.84
2017-09-08T12:42:02.527Z,94718.69
2017-09-08T12:47:07.108Z,94712.44
2017-09-08T13:51:52.672Z,94685.70
2017-09-08T14:35:06.355Z,94672.69
2017-09-08T14:37:38.321Z,94665.17
2017-09-08T14:40:37.334Z,94660.48
2017-09-08T14:48:27.543Z,94658.83
2017-09-08T15:14:03.325Z,94648.38
2017-09-08T15:40:23.317Z,94672.82
2017-09-08T15:45:27.028Z,94668.20
2017-09-08T15:47:56.176Z,94659.31
2017-09-08T15:50:24.384Z,94655.27
2017-09-08T15:52:59.857Z,94659.15
2017-09-08T15:58:12.393Z,94661.30
2017-09-08T16:00:40.035Z,94657.60
2017-09-08T16:03:09.653Z,94657.45
2017-09-08T16:08:27.909Z,94655.30
2017-09-08T16:10:55.510Z,94667.02
2017-09-08T16:13:24.119Z,94661.83
2017-09-08T16:15:55.195Z,94661.27
2017-09-08T16:21:02.722Z,94665.69
2017-09-08T16:23:32.391Z,94666.91
2017-09-08T16:26:26.730Z,94664.20
2017-09-08T16:28:54.758Z,94664.83
2017-09-08T16:31:22.595Z,94668.45
2017-09-08T16:33:50.977Z,94666.63
2017-09-08T16:36:22.220Z,94672.11
2017-09-08T16:39:11.766Z,94667.73
2017-09-08T16:41:39.515Z,94668.64
2017-09-08T16:44:07.247Z,94659.81
2017-09-08T16:46:34.924Z,94666.30
2017-09-08T16:49:02.984Z,94669.99
2017-09-08T16:51:31.638Z,94665.08
2017-09-08T16:54:00.721Z,94664.52
2017-09-08T16:56:28.996Z,94671.14
2017-09-08T16:58:57.229Z,94679.26
2017-09-08T17:01:26.426Z,94675.50
2017-09-08T17:06:34.418Z,94682.77
2017-09-08T17:09:03.326Z,94684.26
2017-09-08T17:11:31.354Z,94684.17
2017-09-08T17:13:59.193Z,94690.18
2017-09-08T17:18:59.580Z,94692.58
2017-09-08T17:21:28.437Z,94697.33
2017-09-08T17:23:56.094Z,94707.23
2017-09-08T17:26:23.703Z,94711.84
2017-09-08T17:28:51.408Z,94718.08
2017-09-08T17:31:18.967Z,94713.13
2017-09-08T17:33:47.311Z,94713.59
2017-09-08T17:36:15.370Z,94713.91
2017-09-08T17:38:42.937Z,94717.13
2017-09-08T17:41:10.782Z,94718.01
2017-09-08T17:43:39.267Z,94715.80
2017-09-08T17:46:06.925Z,94720.14
2017-09-08T17:48:35.054Z,94725.28
2017-09-08T17:51:02.715Z,94730.99
2017-09-08T17:53:30.347Z,94728.86
2017-09-08T17:56:00.316Z,94729.96
2017-09-08T17:58:28.157Z,94736.85
2017-09-08T18:03:29.535Z,94738.56
2017-09-08T18:06:03.867Z,94737.28
2017-09-08T18:08:31.808Z,94742.27
2017-09-08T18:11:00.756Z,94741.32
2017-09-08T18:13:28.920Z,94735.56
2017-09-08T18:15:56.807Z,94733.47
2017-09-08T18:18:24.690Z,94733.47
2017-09-08T18:20:54.205Z,94738.45
2017-09-08T18:25:57.255Z,94739.19
2017-09-08T18:28:25.640Z,94744.36
2017-09-08T18:30:56.114Z,94746.08
2017-09-08T18:33:24.672Z,94740.21
2017-09-08T18:35:53.111Z,94747.98
2017-09-08T18:38:21.274Z,94738.88
2017-09-08T18:40:48.975Z,94748.03
2017-09-08T18:43:16.677Z,94741.20
2017-09-08T18:45:44.647Z,94740.88
2017-09-08T18:48:12.899Z,94736.72
2017-09-08T18:53:13.545Z,94745.52
2017-09-08T18:55:41.805Z,94745.72
2017-09-08T19:00:42.283Z,94742.94
2017-09-08T19:03:10.027Z,94754.36
2017-09-08T19:05:37.749Z,94745.76
2017-09-08T19:08:05.356Z,94747.09
2017-09-08T19:10:33.115Z,94748.42
2017-09-08T19:13:03.374Z,94744.50
2017-09-08T19:15:31.244Z,94748.87
2017-09-08T19:17:59.318Z,94753.45
2017-09-08T19:22:58.696Z,94745.72
2017-09-08T19:25:26.350Z,94746.34
2017-09-08T19:27:53.994Z,94750.06
2017-09-08T19:30:21.712Z,94748.81
2017-09-08T19:32:49.314Z,94755.21
2017-09-08T19:35:16.924Z,94757.20
2017-09-08T19:37:51.981Z,94758.42
2017-09-08T19:40:19.586Z,94762.56
2017-09-08T19:42:47.303Z,94763.02
2017-09-08T19:45:15.049Z,94759.29
2017-09-08T19:47:43.132Z,94768.66
2017-09-08T19:50:10.766Z,94768.31
2017-09-08T19:52:38.421Z,94764.73
2017-09-08T19:55:06.035Z,94767.32
2017-09-08T19:57:33.638Z,94764.92
2017-09-08T20:00:01.320Z,94769.11
2017-09-08T20:02:28.981Z,94766.70
2017-09-08T20:04:56.573Z,94772.37
2017-09-08T20:07:24.192Z,94770.51
2017-09-08T20:09:51.898Z,94775.13
2017-09-08T20:12:19.611Z,94773.17
2017-09-08T20:14:47.195Z,94773.63
2017-09-08T20:17:14.801Z,94770.91
2017-09-08T20:19:42.433Z,94776.43
2017-09-08T20:22:10.015Z,94774.48
2017-09-08T20:24:37.621Z,94773.41
2017-09-08T20:27:05.287Z,94778.02
2017-09-08T20:29:32.916Z,94782.04
2017-09-08T20:32:00.515Z,94781.92
2017-09-08T20:34:28.156Z,94784.45
2017-09-08T20:36:55.768Z,94783.55
2017-09-08T20:39:23.389Z,94784.75
2017-09-08T20:41:51.058Z,94785.73
2017-09-08T20:44:18.688Z,94790.78
2017-09-08T20:46:46.780Z,94793.38
2017-09-08T20:49:14.402Z,94798.14
2017-09-08T20:51:42.063Z,94794.59
2017-09-08T20:54:09.645Z,94799.57
2017-09-08T20:56:37.238Z,94799.41
2017-09-08T20:59:04.837Z,94797.42
2017-09-08T21:01:33.145Z,94799.57
2017-09-08T21:04:00.676Z,94801.50
2017-09-08T21:06:28.439Z,94797.39
2017-09-08T21:08:56.677Z,94791.34
2017-09-08T21:11:24.378Z,94788.71
2017-09-08T21:13:52.077Z,94795.20
2017-09-08T21:16:19.666Z,94794.86
2017-09-08T21:18:47.408Z,94785.73
2017-09-08T21:21:15.186Z,94782.95
2017-09-08T21:23:42.906Z,94781.30
2017-09-08T21:26:10.564Z,94778.67
2017-09-08T21:28:38.234Z,94783.62
2017-09-08T21:31:05.776Z,94782.54
2017-09-08T21:33:33.476Z,94783.27
2017-09-08T21:36:01.115Z,94777.45
2017-09-08T21:38:28.856Z,94775.41
2017-09-08T21:40:56.554Z,94773.58
2017-09-08T21:43:24.366Z,94779.84
2017-09-08T21:45:52.009Z,94767.19
2017-09-08T21:48:19.630Z,94770.63
2017-09-08T21:50:47.482Z,94776.90
2017-09-08T21:53:15.137Z,94774.65
2017-09-08T21:55:42.741Z,94771.45
2017-09-08T21:58:10.390Z,94767.50
2017-09-08T22:00:38.152Z,94772.84
2017-09-08T22:03:05.835Z,94774.05
2017-09-08T22:05:33.422Z,94765.31
2017-09-08T22:08:01.034Z,94761.16
2017-09-08T22:10:28.834Z,94766.67
2017-09-08T22:12:56.417Z,94758.95
2017-09-08T22:15:24.045Z,94750.81
2017-09-08T22:17:51.625Z,94751.95
2017-09-08T22:20:19.146Z,94747.42
2017-09-08T22:22:46.865Z,94753.53
2017-09-08T22:25:14.513Z,94745.97
2017-09-08T22:27:42.082Z,94753.02
2017-09-08T22:30:10.622Z,94751.31
2017-09-08T22:32:38.240Z,94756.47
2017-09-08T22:35:05.801Z,94757.64
2017-09-08T22:37:33.466Z,94758.05
2017-09-08T22:40:01.101Z,94762.22
2017-09-08T22:42:28.717Z,94754.09
2017-09-08T22:44:56.390Z,94747.47
2017-09-08T22:47:24.179Z,94741.45
2017-09-08T22:49:51.691Z,94735.60
2017-09-08T22:52:19.328Z,94741.48
2017-09-08T22:54:46.971Z,94737.69
2017-09-08T22:57:14.701Z,94735.45
2017-09-08T22:59:42.293Z,94733.01
2017-09-08T23:02:09.923Z,94722.56
2017-09-08T23:04:37.457Z,94717.09
2017-09-08T23:07:05.094Z,94715.98
2017-09-08T23:09:32.773Z,94721.87
2017-09-08T23:12:00.685Z,94733.28
2017-09-08T23:14:28.466Z,94733.85
2017-09-08T23:16:56.089Z,94727.24
2017-09-08T23:19:23.710Z,94727.65
2017-09-08T23:21:51.320Z,94726.70
2017-09-08T23:24:19.082Z,94732.02
2017-09-08T23:26:46.858Z,94732.23
2017-09-08T23:29:14.717Z,94734.13
2017-09-08T23:31:42.632Z,94732.08
2017-09-08T23:34:10.216Z,94741.56
2017-09-08T23:36:37.912Z,94734.77
2017-09-08T23:39:05.470Z,94726.41
2017-09-08T23:41:33.663Z,94722.08
2017-09-08T23:44:01.421Z,94717.55
2017-09-08T23:46:29.009Z,94727.23
2017-09-08T23:48:57.302Z,94726.69
2017-09-08T23:51:24.944Z,94728.80
2017-09-08T23:53:52.449Z,94726.91
2017-09-08T23:56:20.205Z,94737.91
2017-09-08T23:58:47.792Z,94735.47
